Time;durP1;ratioP1;P1;durP2;ratioP2;P2;SDS_P1;SDS_P2;PMS_P1;PMS_P2;Temp;Humidity;BMP_temperature;BMP_pressure;BME280_temperature;BME280_humidity;BME280_pressure;Samples;Min_cycle;Max_cycle;Signal;HPM_P1;HPM_P2
2023/08/02 00:00:09;;;;;;;2.17;1.70;;;27.60;63.50;;;;;;5016679;28;20466;-81
2023/08/02 00:02:36;;;;;;;3.07;2.53;;;27.60;63.60;;;;;;5037281;28;20873;-80
2023/08/02 00:05:07;;;;;;;2.40;2.00;;;27.60;63.70;;;;;;5037046;28;20476;-80
2023/08/02 00:07:34;;;;;;;2.60;1.97;;;27.60;63.50;;;;;;5036817;28;20402;-80
2023/08/02 00:10:03;;;;;;;1.87;1.77;;;27.60;63.70;;;;;;5040795;28;20455;-81
2023/08/02 00:12:31;;;;;;;2.60;1.83;;;27.60;63.50;;;;;;5040250;28;20448;-80
2023/08/02 00:14:59;;;;;;;4.83;1.70;;;27.60;63.70;;;;;;5037757;28;20516;-81
2023/08/02 00:17:26;;;;;;;2.43;1.83;;;27.60;63.60;;;;;;5012576;28;20543;-81
2023/08/02 00:19:55;;;;;;;2.20;1.90;;;27.60;63.50;;;;;;5017647;28;20519;-81
2023/08/02 00:22:24;;;;;;;3.47;2.00;;;27.60;63.60;;;;;;5012849;28;20538;-81
2023/08/02 00:24:52;;;;;;;2.50;1.70;;;27.60;63.60;;;;;;5021073;28;21006;-80
2023/08/02 00:27:20;;;;;;;3.60;1.87;;;27.60;63.60;;;;;;5020617;28;20467;-80
2023/08/02 00:29:50;;;;;;;5.33;1.93;;;27.50;63.60;;;;;;5018645;28;20474;-80
2023/08/02 00:32:19;;;;;;;2.70;2.20;;;27.50;63.70;;;;;;5017116;28;20902;-81
2023/08/02 00:34:54;;;;;;;2.73;2.10;;;27.50;63.70;;;;;;5016692;28;20502;-81
2023/08/02 00:37:24;;;;;;;3.77;1.83;;;27.50;63.70;;;;;;5017802;28;20434;-80
2023/08/02 00:39:52;;;;;;;5.13;1.80;;;27.50;64.00;;;;;;5017381;28;20991;-80
2023/08/02 00:42:20;;;;;;;9.80;1.97;;;27.50;64.10;;;;;;5016935;28;20464;-80
2023/08/02 00:44:48;;;;;;;2.90;1.60;;;27.50;64.00;;;;;;5017173;28;20527;-81
2023/08/02 00:47:17;;;;;;;3.07;2.10;;;27.50;64.00;;;;;;5008408;28;20458;-80
2023/08/02 00:49:45;;;;;;;1.73;1.50;;;27.50;64.10;;;;;;5017619;28;20524;-80
2023/08/02 00:52:13;;;;;;;2.23;1.77;;;27.50;64.00;;;;;;5013620;28;20492;-80
2023/08/02 00:54:42;;;;;;;2.00;1.83;;;27.50;64.30;;;;;;5011015;28;20452;-81
2023/08/02 00:57:10;;;;;;;2.30;1.53;;;27.50;64.00;;;;;;5018333;28;20441;-81
2023/08/02 00:59:39;;;;;;;1.80;1.70;;;27.50;64.10;;;;;;5015692;28;20460;-80
2023/08/02 01:02:07;;;;;;;3.67;1.90;;;27.50;64.10;;;;;;5010392;28;20499;-81
2023/08/02 01:04:35;;;;;;;1.90;1.73;;;27.50;64.30;;;;;;5010790;28;20502;-80
2023/08/02 01:07:06;;;;;;;2.20;2.00;;;27.50;64.30;;;;;;5009822;28;20475;-81
2023/08/02 01:09:36;;;;;;;2.90;1.67;;;27.50;64.00;;;;;;5005928;28;20447;-80
2023/08/02 01:12:08;;;;;;;1.93;1.63;;;27.50;64.10;;;;;;5013063;28;20512;-81
2023/08/02 01:14:36;;;;;;;6.50;2.43;;;27.50;64.10;;;;;;5013251;28;20444;-81
2023/08/02 01:17:21;;;;;;;5.93;2.27;;;27.50;64.30;;;;;;5017776;28;20510;-81
2023/08/02 01:19:49;;;;;;;2.83;2.10;;;27.40;64.20;;;;;;5006971;28;20443;-80
2023/08/02 01:22:18;;;;;;;2.30;2.10;;;27.50;64.10;;;;;;5007507;28;20451;-80
2023/08/02 01:24:47;;;;;;;2.40;2.07;;;27.50;64.30;;;;;;5011236;28;20419;-80
2023/08/02 01:27:30;;;;;;;5.20;2.10;;;27.50;64.20;;;;;;5015339;28;20491;-80
2023/08/02 01:29:58;;;;;;;2.90;2.30;;;27.50;64.30;;;;;;5016524;28;20515;-80
2023/08/02 01:32:26;;;;;;;3.73;2.50;;;27.50;64.30;;;;;;5016670;28;20457;-80
2023/08/02 01:34:55;;;;;;;2.50;2.30;;;27.40;64.10;;;;;;5013493;28;20480;-81
2023/08/02 01:37:24;;;;;;;2.30;2.10;;;27.40;64.10;;;;;;5012995;28;20814;-80
2023/08/02 01:39:52;;;;;;;3.67;3.20;;;27.40;64.80;;;;;;5010154;28;20495;-80
2023/08/02 01:42:20;;;;;;;3.13;2.50;;;27.40;64.30;;;;;;5015162;28;20447;-80
2023/08/02 01:44:48;;;;;;;2.57;2.10;;;27.40;64.10;;;;;;5014535;28;20484;-81
2023/08/02 01:47:17;;;;;;;2.83;2.63;;;27.40;64.20;;;;;;5014462;28;20467;-80
2023/08/02 01:49:45;;;;;;;2.77;2.57;;;27.40;64.10;;;;;;5014844;28;20472;-80
2023/08/02 01:52:13;;;;;;;2.50;2.27;;;27.40;64.20;;;;;;5015033;28;20438;-80
2023/08/02 01:54:42;;;;;;;3.40;2.83;;;27.40;64.30;;;;;;5015367;28;20476;-80
2023/08/02 01:57:10;;;;;;;3.13;2.93;;;27.40;64.20;;;;;;5014027;28;20436;-80
2023/08/02 01:59:38;;;;;;;3.07;2.47;;;27.40;64.20;;;;;;5010408;28;20469;-80
2023/08/02 02:02:06;;;;;;;2.53;2.33;;;27.40;64.20;;;;;;5004335;28;20511;-80
2023/08/02 02:04:34;;;;;;;2.63;2.43;;;27.40;64.20;;;;;;5015956;28;20502;-81
2023/08/02 02:07:02;;;;;;;3.40;2.80;;;27.40;64.10;;;;;;5008300;28;20455;-81
2023/08/02 02:09:30;;;;;;;3.20;2.50;;;27.40;64.10;;;;;;5013603;28;20475;-81
2023/08/02 02:12:00;;;;;;;2.50;2.33;;;27.40;64.20;;;;;;5016748;28;20456;-81
2023/08/02 02:14:28;;;;;;;3.30;2.73;;;27.40;64.20;;;;;;5017242;28;20449;-81
2023/08/02 02:16:56;;;;;;;3.07;2.67;;;27.40;64.40;;;;;;5010017;28;20445;-81
2023/08/02 02:19:24;;;;;;;3.27;3.00;;;27.40;64.30;;;;;;5014980;28;20522;-81
2023/08/02 02:21:52;;;;;;;2.87;2.67;;;27.40;64.20;;;;;;5010172;28;20451;-81
2023/08/02 02:24:21;;;;;;;3.60;2.53;;;27.40;64.20;;;;;;5012871;28;20512;-80
2023/08/02 02:26:49;;;;;;;3.00;2.77;;;27.40;64.20;;;;;;5015124;28;20499;-80
2023/08/02 02:29:18;;;;;;;3.70;2.50;;;27.40;64.20;;;;;;5015622;28;20526;-80
2023/08/02 02:31:45;;;;;;;3.00;2.80;;;27.30;64.20;;;;;;5016330;28;20460;-81
2023/08/02 02:34:14;;;;;;;7.40;2.90;;;27.40;64.40;;;;;;5016837;28;20457;-80
2023/08/02 02:36:44;;;;;;;3.17;2.87;;;27.40;64.30;;;;;;5016769;28;20452;-80
2023/08/02 02:39:12;;;;;;;2.87;2.67;;;27.30;64.10;;;;;;5017221;28;20436;-80
2023/08/02 02:41:40;;;;;;;3.73;2.47;;;27.30;64.30;;;;;;5009246;28;20407;-80
2023/08/02 02:44:08;;;;;;;2.80;2.60;;;27.30;64.30;;;;;;5017476;28;20455;-80
2023/08/02 02:46:38;;;;;;;2.97;2.77;;;27.30;64.20;;;;;;5017382;28;20840;-80
2023/08/02 02:49:06;;;;;;;5.13;2.87;;;27.30;64.20;;;;;;5016405;28;20452;-80
2023/08/02 02:51:34;;;;;;;3.07;2.87;;;27.30;64.20;;;;;;5017670;28;20472;-81
2023/08/02 02:54:02;;;;;;;4.77;2.90;;;27.30;64.20;;;;;;5005932;28;20488;-80
2023/08/02 02:56:30;;;;;;;2.57;2.37;;;27.30;64.30;;;;;;5016798;28;21010;-81
2023/08/02 02:58:58;;;;;;;2.80;2.60;;;27.30;64.30;;;;;;5016309;28;20963;-80
2023/08/02 03:01:26;;;;;;;2.63;2.50;;;27.30;64.30;;;;;;5016054;28;20517;-81
2023/08/02 03:03:55;;;;;;;3.13;2.90;;;27.30;64.30;;;;;;5017029;28;20443;-81
2023/08/02 03:06:23;;;;;;;3.47;3.17;;;27.30;64.20;;;;;;5012161;28;20468;-77
2023/08/02 03:08:51;;;;;;;2.97;2.63;;;27.30;64.50;;;;;;5016376;28;20474;-81
2023/08/02 03:11:19;;;;;;;3.47;2.70;;;27.30;64.30;;;;;;5012030;28;20472;-81
2023/08/02 03:13:47;;;;;;;2.87;2.60;;;27.30;64.30;;;;;;5016354;28;20460;-80
2023/08/02 03:16:15;;;;;;;2.63;2.53;;;27.30;64.30;;;;;;5016576;28;20445;-80
2023/08/02 03:18:43;;;;;;;4.20;2.63;;;27.30;64.50;;;;;;5016748;28;20444;-80
2023/08/02 03:21:13;;;;;;;2.77;2.60;;;27.30;64.50;;;;;;5017307;28;20522;-80
2023/08/02 03:23:42;;;;;;;3.90;2.60;;;27.30;64.10;;;;;;5017182;28;20446;-81
2023/08/02 03:26:11;;;;;;;3.50;2.43;;;27.30;64.30;;;;;;5024790;28;20453;-80
2023/08/02 03:28:38;;;;;;;6.23;2.53;;;27.20;64.50;;;;;;5017043;28;20529;-81
2023/08/02 03:31:07;;;;;;;9.40;2.73;;;27.30;64.20;;;;;;5013602;28;20497;-81
2023/08/02 03:33:35;;;;;;;3.97;2.30;;;27.30;64.20;;;;;;5013041;28;20467;-80
2023/08/02 03:36:03;;;;;;;5.03;2.83;;;27.30;64.60;;;;;;5028048;28;20483;-80
2023/08/02 03:38:32;;;;;;;2.80;2.30;;;27.30;64.70;;;;;;5017048;28;20419;-80
2023/08/02 03:41:00;;;;;;;2.87;2.67;;;27.30;64.60;;;;;;5020023;28;20474;-80
2023/08/02 03:43:28;;;;;;;2.80;2.57;;;27.20;64.70;;;;;;5001088;28;20505;-80
2023/08/02 03:45:56;;;;;;;3.30;2.73;;;27.20;64.50;;;;;;5004237;28;20531;-80
2023/08/02 03:48:25;;;;;;;2.50;2.40;;;27.20;64.60;;;;;;5010036;28;20479;-80
2023/08/02 03:50:52;;;;;;;3.37;2.60;;;27.20;64.80;;;;;;5004839;28;20460;-79
2023/08/02 03:53:20;;;;;;;12.57;2.23;;;27.20;64.60;;;;;;5009865;28;20469;-81
2023/08/02 03:55:49;;;;;;;3.03;2.40;;;27.20;64.60;;;;;;4998427;28;20499;-81
2023/08/02 03:58:17;;;;;;;3.03;2.37;;;27.20;64.50;;;;;;5014801;28;20439;-81
2023/08/02 04:00:45;;;;;;;3.10;2.90;;;27.20;64.50;;;;;;5017784;28;20435;-80
2023/08/02 04:03:13;;;;;;;2.70;2.30;;;27.20;64.50;;;;;;5011993;28;20420;-80
2023/08/02 04:05:41;;;;;;;3.03;2.83;;;27.20;64.60;;;;;;5012576;28;20435;-80
2023/08/02 04:08:09;;;;;;;2.63;2.50;;;27.20;64.80;;;;;;5014091;28;20586;-81
2023/08/02 04:10:37;;;;;;;2.70;2.50;;;27.20;64.30;;;;;;5002386;28;20469;-80
2023/08/02 04:13:06;;;;;;;2.40;2.00;;;27.20;64.80;;;;;;5013406;28;20447;-81
2023/08/02 04:15:35;;;;;;;3.07;2.70;;;27.20;64.50;;;;;;5015769;28;20461;-80
2023/08/02 04:18:02;;;;;;;2.10;2.00;;;27.20;64.60;;;;;;5012419;28;20440;-80
2023/08/02 04:20:31;;;;;;;2.40;2.30;;;27.20;64.50;;;;;;5011884;28;20483;-80
2023/08/02 04:22:59;;;;;;;3.20;2.50;;;27.20;64.50;;;;;;5006314;28;20535;-80
2023/08/02 04:25:28;;;;;;;2.73;2.53;;;27.10;64.50;;;;;;5016100;28;20480;-80
2023/08/02 04:27:56;;;;;;;2.50;2.30;;;27.20;64.50;;;;;;5005294;28;20447;-80
2023/08/02 04:30:25;;;;;;;2.60;2.40;;;27.20;64.60;;;;;;5007457;28;20480;-80
2023/08/02 04:32:55;;;;;;;4.10;2.13;;;27.20;64.40;;;;;;5006141;28;20498;-80
2023/08/02 04:35:23;;;;;;;6.37;2.37;;;27.20;64.70;;;;;;5014953;28;20906;-81
2023/08/02 04:37:51;;;;;;;3.23;2.10;;;27.20;64.40;;;;;;5018246;28;20487;-80
2023/08/02 04:40:18;;;;;;;2.50;2.40;;;27.20;64.30;;;;;;5018326;28;20478;-79
2023/08/02 04:42:47;;;;;;;2.90;2.70;;;27.20;64.30;;;;;;5009990;28;20436;-80
2023/08/02 04:45:16;;;;;;;2.57;2.37;;;27.20;64.70;;;;;;5010228;28;20403;-80
2023/08/02 04:47:45;;;;;;;2.50;2.30;;;27.20;64.20;;;;;;5006744;28;20481;-80
2023/08/02 04:50:12;;;;;;;3.33;2.13;;;27.20;64.30;;;;;;5006706;28;20669;-80
2023/08/02 04:52:41;;;;;;;3.70;2.27;;;27.20;64.40;;;;;;5019122;28;20499;-80
2023/08/02 04:55:10;;;;;;;3.07;2.50;;;27.20;64.40;;;;;;5020430;28;20479;-80
2023/08/02 04:57:37;;;;;;;2.10;2.00;;;27.20;64.40;;;;;;5003007;28;20508;-79
2023/08/02 05:00:07;;;;;;;2.53;2.33;;;27.20;64.40;;;;;;5016010;28;20553;-78
2023/08/02 05:02:36;;;;;;;2.50;2.20;;;27.20;64.20;;;;;;5015492;28;20818;-78
2023/08/02 05:05:06;;;;;;;2.33;2.20;;;27.20;64.30;;;;;;5015740;28;20447;-80
2023/08/02 05:07:35;;;;;;;4.10;2.10;;;27.20;64.30;;;;;;5008343;28;21002;-79
2023/08/02 05:10:07;;;;;;;2.30;2.20;;;27.20;64.30;;;;;;5009034;28;20959;-79
2023/08/02 05:12:38;;;;;;;2.27;2.17;;;27.20;64.50;;;;;;5014906;28;20453;-80
2023/08/02 05:15:07;;;;;;;2.47;2.27;;;27.20;64.40;;;;;;5010966;28;20428;-80
2023/08/02 05:17:35;;;;;;;3.13;2.80;;;27.20;64.40;;;;;;5019260;28;20914;-80
2023/08/02 05:20:04;;;;;;;2.40;2.20;;;27.20;64.30;;;;;;5020213;28;20435;-80
2023/08/02 05:22:33;;;;;;;2.47;2.30;;;27.20;64.30;;;;;;5018822;28;20468;-80
2023/08/02 05:25:01;;;;;;;2.13;2.03;;;27.20;64.20;;;;;;5015650;28;20521;-80
2023/08/02 05:27:29;;;;;;;2.07;1.90;;;27.20;64.20;;;;;;5016979;28;20419;-80
2023/08/02 05:29:57;;;;;;;4.93;2.17;;;27.20;64.30;;;;;;5014781;28;20463;-80
2023/08/02 05:32:25;;;;;;;2.63;2.30;;;27.20;64.10;;;;;;5000389;28;20554;-80
2023/08/02 05:34:52;;;;;;;4.27;2.30;;;27.20;64.20;;;;;;5007787;28;20449;-80
2023/08/02 05:37:21;;;;;;;2.03;1.83;;;27.20;64.20;;;;;;5011230;28;20435;-79
2023/08/02 05:39:50;;;;;;;4.93;2.50;;;27.20;64.30;;;;;;5012447;28;20460;-80
2023/08/02 05:42:18;;;;;;;2.10;2.00;;;27.20;64.20;;;;;;5011319;28;20475;-80
2023/08/02 05:44:46;;;;;;;2.40;2.20;;;27.20;64.20;;;;;;5011689;28;20469;-80
2023/08/02 05:47:14;;;;;;;2.50;2.00;;;27.20;64.10;;;;;;5017121;28;20479;-80
2023/08/02 05:49:42;;;;;;;2.30;2.10;;;27.20;64.10;;;;;;5019835;28;20536;-80
2023/08/02 05:52:10;;;;;;;2.37;2.20;;;27.20;64.20;;;;;;5019937;28;20523;-80
2023/08/02 05:54:38;;;;;;;2.40;2.30;;;27.20;63.90;;;;;;5019172;28;20444;-80
2023/08/02 05:57:08;;;;;;;2.40;2.20;;;27.20;64.10;;;;;;5019992;28;20506;-79
2023/08/02 05:59:37;;;;;;;2.67;2.47;;;27.30;64.10;;;;;;5019302;28;20495;-80
2023/08/02 06:02:05;;;;;;;2.27;2.17;;;27.20;63.90;;;;;;5019326;28;20524;-79
2023/08/02 06:04:36;;;;;;;2.60;2.10;;;27.20;63.90;;;;;;5018482;28;20507;-80
2023/08/02 06:07:04;;;;;;;2.40;2.10;;;27.30;64.10;;;;;;5019748;28;20432;-80
2023/08/02 06:09:33;;;;;;;2.17;2.00;;;27.30;64.10;;;;;;5018640;28;20904;-80
2023/08/02 06:12:01;;;;;;;2.03;1.93;;;27.30;63.70;;;;;;5019177;28;20453;-80
2023/08/02 06:14:30;;;;;;;2.13;1.93;;;27.30;63.70;;;;;;5011740;28;20444;-80
2023/08/02 06:16:57;;;;;;;2.00;1.87;;;27.30;63.70;;;;;;5020481;28;20439;-80
2023/08/02 06:19:25;;;;;;;2.30;2.20;;;27.30;63.80;;;;;;5019462;28;20511;-80
2023/08/02 06:21:53;;;;;;;2.00;1.90;;;27.30;63.70;;;;;;5019574;28;20471;-80
2023/08/02 06:24:21;;;;;;;3.80;2.00;;;27.30;63.70;;;;;;5017211;28;20439;-80
2023/08/02 06:26:49;;;;;;;2.03;1.90;;;27.40;63.80;;;;;;5011624;28;20437;-80
2023/08/02 06:29:17;;;;;;;2.40;2.20;;;27.40;63.70;;;;;;5019672;28;20547;-80
2023/08/02 06:31:46;;;;;;;2.30;2.20;;;27.40;63.70;;;;;;5018274;28;20419;-80
2023/08/02 06:34:13;;;;;;;2.40;1.93;;;27.40;63.50;;;;;;5000146;28;20473;-80
2023/08/02 06:36:41;;;;;;;5.07;2.10;;;27.40;63.40;;;;;;5004084;28;20465;-80
2023/08/02 06:39:09;;;;;;;2.13;2.03;;;27.40;63.60;;;;;;5005563;28;20458;-80
2023/08/02 06:41:37;;;;;;;2.93;2.20;;;27.40;63.40;;;;;;5009166;28;20447;-80
2023/08/02 06:44:06;;;;;;;2.17;1.97;;;27.50;63.30;;;;;;5019280;28;20443;-80
2023/08/02 06:46:34;;;;;;;2.27;2.00;;;27.40;63.30;;;;;;5022348;28;20445;-79
2023/08/02 06:49:03;;;;;;;2.00;1.90;;;27.40;63.40;;;;;;5025857;28;20503;-78
2023/08/02 06:51:31;;;;;;;2.33;2.00;;;27.50;63.30;;;;;;5020518;28;20444;-79
2023/08/02 06:53:59;;;;;;;2.73;2.10;;;27.50;63.40;;;;;;5021494;28;20551;-79
2023/08/02 06:56:26;;;;;;;2.57;2.27;;;27.60;63.30;;;;;;5017871;28;20519;-79
2023/08/02 06:58:54;;;;;;;2.00;1.80;;;27.50;62.90;;;;;;5017035;28;20414;-79
2023/08/02 07:01:23;;;;;;;2.10;2.00;;;27.60;63.10;;;;;;5016369;28;20494;-80
2023/08/02 07:03:50;;;;;;;3.13;2.00;;;27.60;63.10;;;;;;5017963;28;20445;-80
2023/08/02 07:06:21;;;;;;;3.47;2.07;;;27.60;62.90;;;;;;5009687;28;20408;-80
2023/08/02 07:08:49;;;;;;;3.20;2.13;;;27.60;62.90;;;;;;5015021;28;20444;-80
2023/08/02 07:11:17;;;;;;;2.27;2.10;;;27.60;62.90;;;;;;5013552;28;20449;-80
2023/08/02 07:14:02;;;;;;;3.10;2.67;;;27.60;63.00;;;;;;5011245;28;20444;-80
2023/08/02 07:16:31;;;;;;;3.30;2.53;;;27.60;62.80;;;;;;5002227;28;20477;-80
2023/08/02 07:19:00;;;;;;;4.00;2.50;;;27.60;62.60;;;;;;5010114;28;20407;-78
2023/08/02 07:21:29;;;;;;;2.70;2.17;;;27.60;62.70;;;;;;5018347;28;20417;-80
2023/08/02 07:23:57;;;;;;;4.50;2.63;;;27.60;63.10;;;;;;5015325;28;20437;-80
2023/08/02 07:26:25;;;;;;;4.47;2.00;;;27.60;62.70;;;;;;5017647;28;20427;-80
2023/08/02 07:28:53;;;;;;;2.83;2.07;;;27.70;63.10;;;;;;5016531;28;20519;-80
2023/08/02 07:31:21;;;;;;;2.33;2.10;;;27.70;63.00;;;;;;5018274;28;20806;-80
2023/08/02 07:33:48;;;;;;;3.60;2.20;;;27.70;62.80;;;;;;5018520;28;20452;-81
2023/08/02 07:36:18;;;;;;;5.83;2.50;;;27.70;62.30;;;;;;5015296;28;20528;-80
2023/08/02 07:38:47;;;;;;;8.13;2.20;;;27.70;62.60;;;;;;5017136;28;20441;-79
2023/08/02 07:41:15;;;;;;;3.57;1.80;;;27.70;62.50;;;;;;5016198;28;20879;-77
2023/08/02 07:43:44;;;;;;;6.13;2.17;;;27.70;62.60;;;;;;5008185;28;20499;-79
2023/08/02 07:46:18;;;;;;;5.67;2.40;;;27.70;62.40;;;;;;5020059;28;20524;-78
2023/08/02 07:48:46;;;;;;;4.07;2.00;;;27.70;62.20;;;;;;5020779;28;20452;-79
2023/08/02 07:51:14;;;;;;;4.50;2.90;;;27.70;62.10;;;;;;5020746;28;20537;-79
2023/08/02 07:53:42;;;;;;;3.03;2.00;;;27.70;62.00;;;;;;5025762;28;20498;-78
2023/08/02 07:56:12;;;;;;;3.80;2.20;;;27.70;61.60;;;;;;5018578;28;20962;-78
2023/08/02 07:58:40;;;;;;;4.30;2.30;;;27.70;61.70;;;;;;5018514;28;20436;-79
2023/08/02 08:01:08;;;;;;;5.60;2.80;;;27.70;61.30;;;;;;5016570;28;20502;-79
2023/08/02 08:03:36;;;;;;;8.23;2.30;;;27.60;61.10;;;;;;5012604;28;20881;-79
2023/08/02 08:06:11;;;;;;;3.03;2.00;;;27.70;61.10;;;;;;5012407;28;20411;-78
2023/08/02 08:08:39;;;;;;;3.93;2.10;;;27.60;60.80;;;;;;5004747;28;20472;-78
2023/08/02 08:11:07;;;;;;;7.40;2.50;;;27.60;60.80;;;;;;5013785;28;20476;-79
2023/08/02 08:13:36;;;;;;;3.10;2.20;;;27.60;60.50;;;;;;5021174;28;20476;-80
2023/08/02 08:16:05;;;;;;;6.53;2.67;;;27.60;60.50;;;;;;5015688;28;20506;-78
2023/08/02 08:18:33;;;;;;;3.63;2.30;;;27.60;60.20;;;;;;5016568;28;20415;-78
2023/08/02 08:21:02;;;;;;;5.70;2.47;;;27.50;60.10;;;;;;5009421;28;20426;-78
2023/08/02 08:23:31;;;;;;;5.07;2.60;;;27.50;60.00;;;;;;5009536;28;20442;-77
2023/08/02 08:25:59;;;;;;;7.77;2.80;;;27.50;60.10;;;;;;5011068;28;20481;-78
2023/08/02 08:28:27;;;;;;;8.10;2.60;;;27.50;59.90;;;;;;5014622;28;20427;-78
2023/08/02 08:31:03;;;;;;;5.90;2.33;;;27.40;60.00;;;;;;5031136;28;20482;-78
2023/08/02 08:33:31;;;;;;;6.00;2.57;;;27.40;60.00;;;;;;5014495;28;20448;-77
2023/08/02 08:35:59;;;;;;;4.13;2.43;;;27.50;59.80;;;;;;5020289;28;20538;-77
2023/08/02 08:38:27;;;;;;;5.57;2.40;;;27.40;59.80;;;;;;5019668;28;20512;-77
2023/08/02 08:40:56;;;;;;;3.40;2.20;;;27.40;59.80;;;;;;5020766;28;20462;-77
2023/08/02 08:43:26;;;;;;;4.07;2.23;;;27.40;59.50;;;;;;5019968;28;20551;-78
2023/08/02 08:45:54;;;;;;;8.33;2.50;;;27.40;59.60;;;;;;5020230;28;20434;-78
2023/08/02 08:48:23;;;;;;;4.90;2.60;;;27.40;59.40;;;;;;5014750;28;20448;-77
2023/08/02 08:50:51;;;;;;;8.33;3.00;;;27.40;59.60;;;;;;5022398;28;20539;-78
2023/08/02 08:53:23;;;;;;;7.03;2.97;;;27.30;59.30;;;;;;5018487;28;20531;-78
2023/08/02 08:55:51;;;;;;;6.53;2.40;;;27.40;59.30;;;;;;5020315;28;20426;-78
2023/08/02 08:58:19;;;;;;;6.77;2.77;;;27.30;59.30;;;;;;5022129;28;20539;-80
2023/08/02 09:00:47;;;;;;;5.93;2.60;;;27.30;59.20;;;;;;5019733;28;21008;-80
2023/08/02 09:03:15;;;;;;;7.67;2.80;;;27.40;59.20;;;;;;5022025;28;20440;-79
2023/08/02 09:05:45;;;;;;;7.00;2.70;;;27.30;59.20;;;;;;5014855;28;20451;-80
2023/08/02 09:08:13;;;;;;;8.87;2.60;;;27.30;59.10;;;;;;5015738;28;20458;-80
2023/08/02 09:10:41;;;;;;;16.43;3.00;;;27.30;59.20;;;;;;5016105;28;20475;-79
2023/08/02 09:13:21;;;;;;;10.37;2.90;;;27.30;59.30;;;;;;5015642;28;20526;-79
2023/08/02 09:16:05;;;;;;;10.27;2.70;;;27.30;59.50;;;;;;5019349;28;20419;-80
2023/08/02 09:18:37;;;;;;;7.70;2.90;;;27.30;59.50;;;;;;5023465;28;20441;-79
2023/08/02 09:21:07;;;;;;;8.70;2.47;;;27.30;59.50;;;;;;5016222;28;20459;-78
2023/08/02 09:23:35;;;;;;;5.63;2.67;;;27.30;59.50;;;;;;5015294;28;20428;-78
2023/08/02 09:26:14;;;;;;;3.17;2.70;;;27.30;59.40;;;;;;5016894;28;20448;-77
2023/08/02 09:28:55;;;;;;;9.73;3.27;;;27.30;59.40;;;;;;5009591;28;20540;-79
2023/08/02 09:31:23;;;;;;;3.10;2.67;;;27.30;59.30;;;;;;5017772;28;20450;-78
2023/08/02 09:33:52;;;;;;;3.90;2.80;;;27.20;59.20;;;;;;5016463;28;20494;-77
2023/08/02 09:36:25;;;;;;;3.93;3.20;;;27.30;59.10;;;;;;5016088;28;20490;-78
2023/08/02 09:39:02;;;;;;;5.93;2.80;;;27.30;59.10;;;;;;5016308;28;20467;-78
2023/08/02 09:41:30;;;;;;;5.47;2.80;;;27.30;59.20;;;;;;5019742;28;20539;-80
2023/08/02 09:44:20;;;;;;;4.23;2.63;;;27.30;59.20;;;;;;5019171;28;20436;-78
2023/08/02 09:46:48;;;;;;;7.47;3.23;;;27.30;59.30;;;;;;5021841;28;20506;-78
2023/08/02 09:49:19;;;;;;;3.20;2.77;;;27.30;59.20;;;;;;5017421;28;20498;-79
2023/08/02 09:51:48;;;;;;;3.30;3.00;;;27.30;59.30;;;;;;5015292;28;20489;-78
2023/08/02 09:54:16;;;;;;;3.80;2.63;;;27.40;59.30;;;;;;5016145;28;20418;-81
2023/08/02 09:56:44;;;;;;;3.60;2.93;;;27.40;59.50;;;;;;5022354;28;20419;-81
2023/08/02 09:59:12;;;;;;;4.23;3.00;;;27.40;59.30;;;;;;5013418;28;20456;-81
2023/08/02 10:01:40;;;;;;;4.67;2.80;;;27.40;59.30;;;;;;5023691;28;20467;-81
2023/08/02 10:04:08;;;;;;;5.50;3.03;;;27.40;59.50;;;;;;5020336;28;20547;-81
2023/08/02 10:06:39;;;;;;;4.73;2.93;;;27.50;59.50;;;;;;5010927;28;20460;-80
2023/08/02 10:09:08;;;;;;;4.90;2.80;;;27.50;59.60;;;;;;5023198;28;20428;-79
2023/08/02 10:11:39;;;;;;;5.50;3.20;;;27.50;59.40;;;;;;5014315;28;20526;-81
2023/08/02 10:14:08;;;;;;;3.83;2.80;;;27.50;59.50;;;;;;5013622;28;20436;-81
2023/08/02 10:16:36;;;;;;;3.70;2.70;;;27.50;59.50;;;;;;5014712;28;20450;-81
2023/08/02 10:19:04;;;;;;;5.33;3.13;;;27.50;59.60;;;;;;5005093;28;20940;-80
2023/08/02 10:21:33;;;;;;;3.17;2.87;;;27.40;59.70;;;;;;5016643;28;20427;-81
2023/08/02 10:24:01;;;;;;;4.80;2.70;;;27.40;59.60;;;;;;5014499;28;20407;-80
2023/08/02 10:26:30;;;;;;;3.17;2.77;;;27.40;60.00;;;;;;5014570;28;20896;-79
2023/08/02 10:28:58;;;;;;;3.80;2.80;;;27.40;60.10;;;;;;5012104;28;20507;-79
2023/08/02 10:31:26;;;;;;;3.23;3.00;;;27.40;60.00;;;;;;5009996;28;20534;-81
2023/08/02 10:33:54;;;;;;;4.20;3.30;;;27.40;60.10;;;;;;5013934;28;20495;-80
2023/08/02 10:36:23;;;;;;;3.97;3.00;;;27.40;60.20;;;;;;5014079;28;20415;-79
2023/08/02 10:38:53;;;;;;;5.90;2.77;;;27.40;60.90;;;;;;5013863;28;20480;-80
2023/08/02 10:41:22;;;;;;;4.30;3.27;;;27.40;60.20;;;;;;5013030;28;20506;-77
2023/08/02 10:44:11;;;;;;;3.23;2.80;;;27.40;60.30;;;;;;5013195;28;20514;-78
2023/08/02 10:46:38;;;;;;;3.63;2.80;;;27.40;60.30;;;;;;5010594;28;20433;-80
2023/08/02 10:49:36;;;;;;;5.50;3.10;;;27.40;60.20;;;;;;5010920;28;20436;-78
2023/08/02 10:52:29;;;;;;;13.70;3.23;;;27.40;60.20;;;;;;5016297;28;20472;-79
2023/08/02 10:55:05;;;;;;;12.03;3.67;;;27.00;60.50;;;;;;5013623;28;20455;-81
2023/08/02 10:57:33;;;;;;;5.83;3.90;;;26.60;62.50;;;;;;5011595;28;20421;-81
2023/08/02 11:00:13;;;;;;;10.13;3.90;;;26.40;63.20;;;;;;5014783;28;20472;-82
2023/08/02 11:02:48;;;;;;;8.37;3.77;;;26.10;64.40;;;;;;5010000;28;20396;-80
2023/08/02 11:05:18;;;;;;;4.73;3.37;;;26.10;64.90;;;;;;5019294;28;20465;-83
2023/08/02 11:07:59;;;;;;;6.30;3.50;;;26.20;65.40;;;;;;5014214;28;20472;-81
2023/08/02 11:10:28;;;;;;;17.70;9.63;;;26.30;66.00;;;;;;5018716;28;20444;-80
2023/08/02 11:12:56;;;;;;;13.77;7.57;;;26.30;64.70;;;;;;5016316;28;20503;-81
2023/08/02 11:15:25;;;;;;;10.17;5.40;;;26.20;65.10;;;;;;5021861;28;20476;-80
2023/08/02 11:17:56;;;;;;;6.97;5.07;;;26.20;65.70;;;;;;5017771;28;20510;-79
2023/08/02 11:20:25;;;;;;;6.07;4.53;;;26.10;66.20;;;;;;5017721;28;20458;-79
2023/08/02 11:22:54;;;;;;;7.23;4.17;;;26.00;67.20;;;;;;5020184;28;20498;-78
2023/08/02 11:25:22;;;;;;;4.77;3.90;;;25.90;66.50;;;;;;5017667;28;20821;-79
2023/08/02 11:28:02;;;;;;;5.60;3.43;;;25.70;67.30;;;;;;5011078;28;20472;-82
2023/08/02 11:30:33;;;;;;;13.57;6.93;;;25.50;68.70;;;;;;5020581;28;20456;-81
2023/08/02 11:33:01;;;;;;;15.77;9.73;;;25.70;69.00;;;;;;5015349;28;20432;-77
2023/08/02 11:35:29;;;;;;;10.67;5.30;;;25.80;68.10;;;;;;5023287;28;20418;-80
2023/08/02 11:37:57;;;;;;;9.60;5.33;;;25.90;68.90;;;;;;5017920;28;20416;-80
2023/08/02 11:40:34;;;;;;;5.33;4.10;;;26.00;67.80;;;;;;5035355;28;20438;-80
2023/08/02 11:43:03;;;;;;;6.50;5.33;;;26.10;67.90;;;;;;5025514;28;20406;-79
2023/08/02 11:45:35;;;;;;;10.50;4.50;;;26.10;67.20;;;;;;5023345;28;20437;-79
2023/08/02 11:48:04;;;;;;;7.30;6.10;;;26.00;68.80;;;;;;5013260;28;20478;-81
2023/08/02 11:50:38;;;;;;;7.77;5.33;;;26.10;68.20;;;;;;5027857;28;20809;-80
2023/08/02 11:53:07;;;;;;;7.60;5.63;;;26.00;68.10;;;;;;5021858;28;20521;-80
2023/08/02 11:55:36;;;;;;;4.57;4.17;;;26.00;68.90;;;;;;5018184;28;20429;-81
2023/08/02 11:58:05;;;;;;;5.47;4.97;;;25.80;69.20;;;;;;5017076;28;20431;-81
2023/08/02 12:00:35;;;;;;;14.43;5.80;;;25.80;69.80;;;;;;5020125;28;20439;-79
2023/08/02 12:03:10;;;;;;;6.80;6.10;;;25.80;70.00;;;;;;5017564;28;20431;-80
2023/08/02 12:05:38;;;;;;;8.90;6.50;;;25.90;70.20;;;;;;5033325;28;20422;-81
2023/08/02 12:08:11;;;;;;;5.87;5.37;;;25.90;69.50;;;;;;5027954;28;20418;-80
2023/08/02 12:10:39;;;;;;;10.00;5.70;;;25.90;70.10;;;;;;5026172;28;20466;-81
2023/08/02 12:13:11;;;;;;;9.50;5.63;;;26.00;70.60;;;;;;5027065;28;21018;-80
2023/08/02 12:15:40;;;;;;;5.10;4.70;;;26.00;70.20;;;;;;5024979;28;20448;-79
2023/08/02 12:18:08;;;;;;;4.40;4.10;;;25.90;70.50;;;;;;5026679;28;20501;-79
2023/08/02 12:20:37;;;;;;;4.17;3.87;;;25.80;70.10;;;;;;5021129;28;20457;-79
2023/08/02 12:23:06;;;;;;;6.20;4.20;;;25.80;71.40;;;;;;5014449;28;20491;-78
2023/08/02 12:25:44;;;;;;;5.13;4.63;;;25.90;71.00;;;;;;5021392;28;20486;-80
2023/08/02 12:28:14;;;;;;;4.40;3.90;;;26.00;71.40;;;;;;5014908;28;20901;-79
2023/08/02 12:30:58;;;;;;;5.00;4.57;;;25.90;70.70;;;;;;5032320;28;20441;-80
2023/08/02 12:33:26;;;;;;;4.77;4.30;;;25.90;71.40;;;;;;5035790;28;20549;-82
2023/08/02 12:35:54;;;;;;;5.63;4.53;;;25.90;71.40;;;;;;5014461;28;20506;-81
2023/08/02 12:38:28;;;;;;;7.53;3.70;;;25.90;72.20;;;;;;5020329;28;20464;-81
2023/08/02 12:40:57;;;;;;;3.93;3.50;;;26.10;71.70;;;;;;5029462;28;20470;-81
2023/08/02 12:43:25;;;;;;;3.70;3.40;;;25.90;71.70;;;;;;5020953;28;20443;-79
2023/08/02 12:45:54;;;;;;;3.07;2.73;;;25.90;72.70;;;;;;5024355;28;20440;-80
2023/08/02 12:48:23;;;;;;;2.90;2.70;;;25.80;72.10;;;;;;5018846;28;20522;-79
2023/08/02 12:50:51;;;;;;;4.93;2.90;;;25.70;72.80;;;;;;5021367;28;20491;-81
2023/08/02 12:53:19;;;;;;;4.40;2.50;;;25.60;73.20;;;;;;5028134;28;20443;-80
2023/08/02 12:55:47;;;;;;;8.30;2.40;;;25.70;73.20;;;;;;5018850;28;20474;-80